sensor_id;sensor_type;location;lat;lon;timestamp;P1;durP1;ratioP1;P2;durP2;ratioP2
34814;SDS011;21030;53.912;15.214;2023-03-01T00:01:29;0.88;;;0.52;;
34814;SDS011;21030;53.912;15.214;2023-03-01T00:03:58;0.93;;;0.70;;
34814;SDS011;21030;53.912;15.214;2023-03-01T00:06:26;1.95;;;1.40;;
34814;SDS011;21030;53.912;15.214;2023-03-01T00:08:54;4.07;;;1.38;;
34814;SDS011;21030;53.912;15.214;2023-03-01T00:13:52;6.13;;;0.88;;
34814;SDS011;21030;53.912;15.214;2023-03-01T00:16:29;2.83;;;1.10;;
34814;SDS011;21030;53.912;15.214;2023-03-01T00:19:00;1.23;;;0.95;;
34814;SDS011;21030;53.912;15.214;2023-03-01T00:21:27;2.28;;;0.98;;
34814;SDS011;21030;53.912;15.214;2023-03-01T00:23:55;4.43;;;1.75;;
34814;SDS011;21030;53.912;15.214;2023-03-01T00:26:23;0.88;;;0.80;;
34814;SDS011;21030;53.912;15.214;2023-03-01T00:28:51;1.80;;;0.98;;
34814;SDS011;21030;53.912;15.214;2023-03-01T00:31:20;1.45;;;1.25;;
34814;SDS011;21030;53.912;15.214;2023-03-01T00:33:52;2.67;;;1.50;;
34814;SDS011;21030;53.912;15.214;2023-03-01T00:36:24;2.15;;;1.02;;
34814;SDS011;21030;53.912;15.214;2023-03-01T00:38:52;1.30;;;1.20;;
34814;SDS011;21030;53.912;15.214;2023-03-01T00:41:19;1.42;;;1.00;;
34814;SDS011;21030;53.912;15.214;2023-03-01T00:43:49;1.38;;;1.23;;
34814;SDS011;21030;53.912;15.214;2023-03-01T00:46:17;2.17;;;1.00;;
34814;SDS011;21030;53.912;15.214;2023-03-01T00:48:47;17.48;;;1.13;;
34814;SDS011;21030;53.912;15.214;2023-03-01T00:51:15;3.63;;;2.10;;
34814;SDS011;21030;53.912;15.214;2023-03-01T00:53:50;1.48;;;1.38;;
34814;SDS011;21030;53.912;15.214;2023-03-01T00:56:21;0.82;;;0.68;;
34814;SDS011;21030;53.912;15.214;2023-03-01T00:58:48;2.65;;;1.25;;
34814;SDS011;21030;53.912;15.214;2023-03-01T01:01:20;0.57;;;0.57;;
34814;SDS011;21030;53.912;15.214;2023-03-01T01:03:50;0.77;;;0.57;;
34814;SDS011;21030;53.912;15.214;2023-03-01T01:06:20;2.40;;;1.63;;
34814;SDS011;21030;53.912;15.214;2023-03-01T01:08:52;1.15;;;0.47;;
34814;SDS011;21030;53.912;15.214;2023-03-01T01:11:21;2.58;;;2.00;;
34814;SDS011;21030;53.912;15.214;2023-03-01T01:13:49;5.63;;;2.33;;
34814;SDS011;21030;53.912;15.214;2023-03-01T01:16:17;1.63;;;0.63;;
34814;SDS011;21030;53.912;15.214;2023-03-01T01:18:45;1.02;;;0.52;;
34814;SDS011;21030;53.912;15.214;2023-03-01T01:21:14;1.65;;;1.17;;
34814;SDS011;21030;53.912;15.214;2023-03-01T01:23:43;1.55;;;1.10;;
34814;SDS011;21030;53.912;15.214;2023-03-01T01:26:12;0.85;;;0.55;;
34814;SDS011;21030;53.912;15.214;2023-03-01T01:28:41;1.60;;;1.25;;
34814;SDS011;21030;53.912;15.214;2023-03-01T01:31:09;0.63;;;0.60;;
34814;SDS011;21030;53.912;15.214;2023-03-01T01:33:36;1.08;;;0.80;;
34814;SDS011;21030;53.912;15.214;2023-03-01T01:36:04;0.57;;;0.40;;
34814;SDS011;21030;53.912;15.214;2023-03-01T01:38:32;3.38;;;0.95;;
34814;SDS011;21030;53.912;15.214;2023-03-01T01:41:00;2.13;;;1.13;;
34814;SDS011;21030;53.912;15.214;2023-03-01T01:43:29;0.98;;;0.90;;
34814;SDS011;21030;53.912;15.214;2023-03-01T01:45:59;2.47;;;1.50;;
34814;SDS011;21030;53.912;15.214;2023-03-01T01:51:12;1.10;;;0.63;;
34814;SDS011;21030;53.912;15.214;2023-03-01T01:53:44;0.40;;;0.28;;
34814;SDS011;21030;53.912;15.214;2023-03-01T01:56:14;0.25;;;0.25;;
34814;SDS011;21030;53.912;15.214;2023-03-01T01:58:43;0.50;;;0.50;;
34814;SDS011;21030;53.912;15.214;2023-03-01T02:01:13;1.33;;;0.63;;
34814;SDS011;21030;53.912;15.214;2023-03-01T02:03:41;0.98;;;0.55;;
34814;SDS011;21030;53.912;15.214;2023-03-01T02:08:48;1.27;;;0.73;;
34814;SDS011;21030;53.912;15.214;2023-03-01T02:11:19;3.10;;;0.82;;
34814;SDS011;21030;53.912;15.214;2023-03-01T02:13:46;0.70;;;0.70;;
34814;SDS011;21030;53.912;15.214;2023-03-01T02:16:14;1.77;;;0.52;;
34814;SDS011;21030;53.912;15.214;2023-03-01T02:18:42;1.75;;;1.55;;
34814;SDS011;21030;53.912;15.214;2023-03-01T02:23:47;3.97;;;1.92;;
34814;SDS011;21030;53.912;15.214;2023-03-01T02:27:00;0.63;;;0.40;;
34814;SDS011;21030;53.912;15.214;2023-03-01T02:29:04;10.20;;;1.80;;
34814;SDS011;21030;53.912;15.214;2023-03-01T02:31:32;0.50;;;0.50;;
34814;SDS011;21030;53.912;15.214;2023-03-01T02:34:11;1.65;;;1.17;;
34814;SDS011;21030;53.912;15.214;2023-03-01T02:36:42;0.45;;;0.40;;
34814;SDS011;21030;53.912;15.214;2023-03-01T02:39:15;0.47;;;0.47;;
34814;SDS011;21030;53.912;15.214;2023-03-01T02:41:53;0.60;;;0.50;;
34814;SDS011;21030;53.912;15.214;2023-03-01T02:44:22;0.28;;;0.28;;
34814;SDS011;21030;53.912;15.214;2023-03-01T02:46:50;1.10;;;0.73;;
34814;SDS011;21030;53.912;15.214;2023-03-01T02:49:20;0.55;;;0.52;;
34814;SDS011;21030;53.912;15.214;2023-03-01T02:52:13;0.10;;;0.10;;
34814;SDS011;21030;53.912;15.214;2023-03-01T02:54:51;0.57;;;0.52;;
34814;SDS011;21030;53.912;15.214;2023-03-01T02:57:41;0.43;;;0.22;;
34814;SDS011;21030;53.912;15.214;2023-03-01T03:00:13;2.77;;;1.30;;
34814;SDS011;21030;53.912;15.214;2023-03-01T03:02:46;1.65;;;1.55;;
34814;SDS011;21030;53.912;15.214;2023-03-01T03:05:17;1.13;;;0.35;;
34814;SDS011;21030;53.912;15.214;2023-03-01T03:07:46;1.13;;;0.57;;
34814;SDS011;21030;53.912;15.214;2023-03-01T03:10:16;4.45;;;0.25;;
34814;SDS011;21030;53.912;15.214;2023-03-01T03:12:50;4.75;;;1.63;;
34814;SDS011;21030;53.912;15.214;2023-03-01T03:15:18;0.30;;;0.30;;
34814;SDS011;21030;53.912;15.214;2023-03-01T03:17:46;0.47;;;0.43;;
34814;SDS011;21030;53.912;15.214;2023-03-01T03:20:14;4.65;;;0.28;;
34814;SDS011;21030;53.912;15.214;2023-03-01T03:22:46;0.20;;;0.10;;
34814;SDS011;21030;53.912;15.214;2023-03-01T03:25:15;0.63;;;0.50;;
34814;SDS011;21030;53.912;15.214;2023-03-01T03:27:44;1.45;;;0.98;;
34814;SDS011;21030;53.912;15.214;2023-03-01T03:30:14;0.28;;;0.28;;
34814;SDS011;21030;53.912;15.214;2023-03-01T03:32:43;0.75;;;0.65;;
34814;SDS011;21030;53.912;15.214;2023-03-01T03:35:22;2.13;;;1.85;;
34814;SDS011;21030;53.912;15.214;2023-03-01T03:37:58;0.98;;;0.63;;
34814;SDS011;21030;53.912;15.214;2023-03-01T03:40:30;5.07;;;1.25;;
34814;SDS011;21030;53.912;15.214;2023-03-01T03:43:13;0.65;;;0.52;;
34814;SDS011;21030;53.912;15.214;2023-03-01T03:45:45;1.85;;;1.65;;
34814;SDS011;21030;53.912;15.214;2023-03-01T03:48:13;1.15;;;0.65;;
34814;SDS011;21030;53.912;15.214;2023-03-01T03:50:46;1.55;;;0.70;;
34814;SDS011;21030;53.912;15.214;2023-03-01T03:53:15;7.50;;;0.95;;
34814;SDS011;21030;53.912;15.214;2023-03-01T03:55:43;2.83;;;0.73;;
34814;SDS011;21030;53.912;15.214;2023-03-01T03:58:10;1.65;;;0.47;;
34814;SDS011;21030;53.912;15.214;2023-03-01T04:00:39;2.25;;;1.13;;
34814;SDS011;21030;53.912;15.214;2023-03-01T04:03:08;0.27;;;0.27;;
34814;SDS011;21030;53.912;15.214;2023-03-01T04:05:37;2.17;;;1.08;;
34814;SDS011;21030;53.912;15.214;2023-03-01T04:08:06;1.23;;;0.88;;
34814;SDS011;21030;53.912;15.214;2023-03-01T04:13:04;0.45;;;0.15;;
34814;SDS011;21030;53.912;15.214;2023-03-01T04:15:32;2.92;;;1.67;;
34814;SDS011;21030;53.912;15.214;2023-03-01T04:18:00;3.30;;;1.67;;
34814;SDS011;21030;53.912;15.214;2023-03-01T04:20:29;0.00;;;0.00;;
34814;SDS011;21030;53.912;15.214;2023-03-01T04:23:01;1.02;;;0.80;;
34814;SDS011;21030;53.912;15.214;2023-03-01T04:25:50;0.32;;;0.13;;
34814;SDS011;21030;53.912;15.214;2023-03-01T04:30:54;1.05;;;0.93;;
34814;SDS011;21030;53.912;15.214;2023-03-01T04:33:23;3.03;;;1.48;;
34814;SDS011;21030;53.912;15.214;2023-03-01T04:35:51;0.00;;;0.00;;
34814;SDS011;21030;53.912;15.214;2023-03-01T04:38:19;0.73;;;0.47;;
34814;SDS011;21030;53.912;15.214;2023-03-01T04:40:47;1.10;;;0.80;;
34814;SDS011;21030;53.912;15.214;2023-03-01T04:43:15;0.82;;;0.38;;
34814;SDS011;21030;53.912;15.214;2023-03-01T04:45:42;0.52;;;0.52;;
34814;SDS011;21030;53.912;15.214;2023-03-01T04:48:09;5.13;;;0.47;;
34814;SDS011;21030;53.912;15.214;2023-03-01T04:50:36;0.65;;;0.35;;
34814;SDS011;21030;53.912;15.214;2023-03-01T04:53:03;0.30;;;0.30;;
34814;SDS011;21030;53.912;15.214;2023-03-01T04:55:31;1.65;;;0.75;;
34814;SDS011;21030;53.912;15.214;2023-03-01T04:57:58;0.55;;;0.55;;
34814;SDS011;21030;53.912;15.214;2023-03-01T05:00:25;1.38;;;1.00;;
34814;SDS011;21030;53.912;15.214;2023-03-01T05:02:53;1.23;;;0.52;;
34814;SDS011;21030;53.912;15.214;2023-03-01T05:05:27;0.73;;;0.73;;
34814;SDS011;21030;53.912;15.214;2023-03-01T05:07:55;1.52;;;1.25;;
34814;SDS011;21030;53.912;15.214;2023-03-01T05:10:24;2.83;;;2.17;;
34814;SDS011;21030;53.912;15.214;2023-03-01T05:12:52;0.95;;;0.52;;
34814;SDS011;21030;53.912;15.214;2023-03-01T05:15:20;2.08;;;0.50;;
34814;SDS011;21030;53.912;15.214;2023-03-01T05:17:57;1.38;;;1.27;;
34814;SDS011;21030;53.912;15.214;2023-03-01T05:20:28;3.38;;;1.70;;
34814;SDS011;21030;53.912;15.214;2023-03-01T05:22:58;0.45;;;0.30;;
34814;SDS011;21030;53.912;15.214;2023-03-01T05:25:26;0.85;;;0.55;;
34814;SDS011;21030;53.912;15.214;2023-03-01T05:28:00;1.10;;;1.00;;
34814;SDS011;21030;53.912;15.214;2023-03-01T05:30:31;1.13;;;0.40;;
34814;SDS011;21030;53.912;15.214;2023-03-01T05:33:00;1.52;;;0.93;;
34814;SDS011;21030;53.912;15.214;2023-03-01T05:35:27;1.35;;;0.60;;
34814;SDS011;21030;53.912;15.214;2023-03-01T05:37:56;0.73;;;0.43;;
34814;SDS011;21030;53.912;15.214;2023-03-01T05:40:23;0.52;;;0.52;;
34814;SDS011;21030;53.912;15.214;2023-03-01T05:42:55;0.65;;;0.45;;
34814;SDS011;21030;53.912;15.214;2023-03-01T05:45:24;0.38;;;0.22;;
34814;SDS011;21030;53.912;15.214;2023-03-01T05:47:53;3.90;;;1.48;;
34814;SDS011;21030;53.912;15.214;2023-03-01T05:50:22;0.30;;;0.30;;
34814;SDS011;21030;53.912;15.214;2023-03-01T05:53:01;2.08;;;1.00;;
34814;SDS011;21030;53.912;15.214;2023-03-01T05:55:32;0.10;;;0.10;;
34814;SDS011;21030;53.912;15.214;2023-03-01T05:57:59;0.82;;;0.80;;
34814;SDS011;21030;53.912;15.214;2023-03-01T06:00:28;1.27;;;0.93;;
34814;SDS011;21030;53.912;15.214;2023-03-01T06:02:57;0.35;;;0.35;;
34814;SDS011;21030;53.912;15.214;2023-03-01T06:05:26;0.70;;;0.40;;
34814;SDS011;21030;53.912;15.214;2023-03-01T06:07:54;1.95;;;1.58;;
34814;SDS011;21030;53.912;15.214;2023-03-01T06:10:21;1.20;;;1.13;;
34814;SDS011;21030;53.912;15.214;2023-03-01T06:12:49;2.63;;;1.70;;
34814;SDS011;21030;53.912;15.214;2023-03-01T06:15:17;1.80;;;0.73;;
34814;SDS011;21030;53.912;15.214;2023-03-01T06:17:45;1.10;;;0.93;;
34814;SDS011;21030;53.912;15.214;2023-03-01T06:20:13;0.77;;;0.68;;
34814;SDS011;21030;53.912;15.214;2023-03-01T06:22:43;0.82;;;0.82;;
34814;SDS011;21030;53.912;15.214;2023-03-01T06:25:11;1.48;;;0.90;;
34814;SDS011;21030;53.912;15.214;2023-03-01T06:27:39;0.65;;;0.55;;
34814;SDS011;21030;53.912;15.214;2023-03-01T06:30:08;1.13;;;0.93;;
34814;SDS011;21030;53.912;15.214;2023-03-01T06:32:37;0.28;;;0.28;;
34814;SDS011;21030;53.912;15.214;2023-03-01T06:35:11;0.10;;;0.10;;
34814;SDS011;21030;53.912;15.214;2023-03-01T06:37:40;1.00;;;0.43;;
34814;SDS011;21030;53.912;15.214;2023-03-01T06:40:08;0.63;;;0.60;;
34814;SDS011;21030;53.912;15.214;2023-03-01T06:42:41;0.25;;;0.13;;
34814;SDS011;21030;53.912;15.214;2023-03-01T06:45:09;0.08;;;0.05;;
34814;SDS011;21030;53.912;15.214;2023-03-01T06:47:37;0.40;;;0.40;;
34814;SDS011;21030;53.912;15.214;2023-03-01T06:50:05;0.63;;;0.45;;
34814;SDS011;21030;53.912;15.214;2023-03-01T06:52:32;0.32;;;0.32;;
34814;SDS011;21030;53.912;15.214;2023-03-01T06:55:01;0.68;;;0.68;;
34814;SDS011;21030;53.912;15.214;2023-03-01T06:57:28;1.98;;;0.82;;
34814;SDS011;21030;53.912;15.214;2023-03-01T06:59:57;0.88;;;0.77;;
34814;SDS011;21030;53.912;15.214;2023-03-01T07:02:24;10.70;;;0.88;;
34814;SDS011;21030;53.912;15.214;2023-03-01T07:04:52;0.57;;;0.38;;
34814;SDS011;21030;53.912;15.214;2023-03-01T07:07:19;1.05;;;0.95;;
34814;SDS011;21030;53.912;15.214;2023-03-01T07:09:49;1.63;;;1.35;;
34814;SDS011;21030;53.912;15.214;2023-03-01T07:12:16;2.75;;;0.70;;
34814;SDS011;21030;53.912;15.214;2023-03-01T07:14:43;18.88;;;1.92;;
34814;SDS011;21030;53.912;15.214;2023-03-01T07:17:11;1.27;;;0.50;;
34814;SDS011;21030;53.912;15.214;2023-03-01T07:19:38;2.53;;;1.17;;
34814;SDS011;21030;53.912;15.214;2023-03-01T07:22:05;1.23;;;1.13;;
34814;SDS011;21030;53.912;15.214;2023-03-01T07:24:34;2.50;;;1.10;;
34814;SDS011;21030;53.912;15.214;2023-03-01T07:27:01;1.30;;;1.00;;
34814;SDS011;21030;53.912;15.214;2023-03-01T07:29:29;2.55;;;0.52;;
34814;SDS011;21030;53.912;15.214;2023-03-01T07:31:56;1.95;;;1.42;;
34814;SDS011;21030;53.912;15.214;2023-03-01T07:34:23;1.80;;;1.35;;
34814;SDS011;21030;53.912;15.214;2023-03-01T07:36:50;3.10;;;1.85;;
34814;SDS011;21030;53.912;15.214;2023-03-01T07:39:18;1.48;;;0.93;;
34814;SDS011;21030;53.912;15.214;2023-03-01T07:41:46;2.42;;;1.38;;
34814;SDS011;21030;53.912;15.214;2023-03-01T07:44:13;2.40;;;1.45;;
34814;SDS011;21030;53.912;15.214;2023-03-01T07:46:43;3.88;;;1.90;;
34814;SDS011;21030;53.912;15.214;2023-03-01T07:49:11;5.47;;;1.92;;
34814;SDS011;21030;53.912;15.214;2023-03-01T07:51:38;2.20;;;1.73;;
34814;SDS011;21030;53.912;15.214;2023-03-01T07:54:05;1.92;;;1.27;;
34814;SDS011;21030;53.912;15.214;2023-03-01T07:56:32;2.88;;;1.35;;
34814;SDS011;21030;53.912;15.214;2023-03-01T07:59:00;0.45;;;0.40;;
34814;SDS011;21030;53.912;15.214;2023-03-01T08:01:28;2.40;;;1.15;;
34814;SDS011;21030;53.912;15.214;2023-03-01T08:03:55;2.83;;;1.52;;
34814;SDS011;21030;53.912;15.214;2023-03-01T08:06:22;5.43;;;1.98;;
34814;SDS011;21030;53.912;15.214;2023-03-01T08:08:50;0.82;;;0.70;;
34814;SDS011;21030;53.912;15.214;2023-03-01T08:11:17;1.02;;;0.75;;
34814;SDS011;21030;53.912;15.214;2023-03-01T08:13:44;0.45;;;0.45;;
34814;SDS011;21030;53.912;15.214;2023-03-01T08:16:17;3.13;;;1.33;;
34814;SDS011;21030;53.912;15.214;2023-03-01T08:18:44;2.45;;;1.88;;
34814;SDS011;21030;53.912;15.214;2023-03-01T08:21:12;7.95;;;1.27;;
34814;SDS011;21030;53.912;15.214;2023-03-01T08:23:41;8.40;;;2.22;;
34814;SDS011;21030;53.912;15.214;2023-03-01T08:26:10;2.88;;;1.80;;
34814;SDS011;21030;53.912;15.214;2023-03-01T08:28:40;5.63;;;1.33;;
34814;SDS011;21030;53.912;15.214;2023-03-01T08:31:14;1.73;;;1.20;;
34814;SDS011;21030;53.912;15.214;2023-03-01T08:33:43;4.82;;;2.22;;
34814;SDS011;21030;53.912;15.214;2023-03-01T08:36:17;1.75;;;1.08;;
34814;SDS011;21030;53.912;15.214;2023-03-01T08:38:44;3.55;;;1.90;;
34814;SDS011;21030;53.912;15.214;2023-03-01T08:41:12;2.80;;;2.08;;
34814;SDS011;21030;53.912;15.214;2023-03-01T08:43:40;4.95;;;1.38;;
34814;SDS011;21030;53.912;15.214;2023-03-01T08:46:07;4.85;;;0.98;;
34814;SDS011;21030;53.912;15.214;2023-03-01T08:48:34;2.97;;;1.70;;
34814;SDS011;21030;53.912;15.214;2023-03-01T08:51:14;1.88;;;1.52;;
34814;SDS011;21030;53.912;15.214;2023-03-01T08:53:44;3.25;;;2.05;;
34814;SDS011;21030;53.912;15.214;2023-03-01T08:56:12;2.72;;;2.03;;
34814;SDS011;21030;53.912;15.214;2023-03-01T08:58:39;4.75;;;1.85;;
34814;SDS011;21030;53.912;15.214;2023-03-01T09:03:38;3.97;;;1.80;;
34814;SDS011;21030;53.912;15.214;2023-03-01T09:06:06;2.28;;;1.48;;
34814;SDS011;21030;53.912;15.214;2023-03-01T09:08:34;7.10;;;2.50;;
34814;SDS011;21030;53.912;15.214;2023-03-01T09:11:06;16.30;;;3.67;;
34814;SDS011;21030;53.912;15.214;2023-03-01T09:13:34;3.78;;;1.85;;
34814;SDS011;21030;53.912;15.214;2023-03-01T09:16:03;10.63;;;1.85;;
34814;SDS011;21030;53.912;15.214;2023-03-01T09:18:31;6.40;;;3.20;;
34814;SDS011;21030;53.912;15.214;2023-03-01T09:21:00;7.65;;;4.65;;
34814;SDS011;21030;53.912;15.214;2023-03-01T09:24:06;4.47;;;2.05;;
34814;SDS011;21030;53.912;15.214;2023-03-01T09:26:39;3.45;;;1.42;;
34814;SDS011;21030;53.912;15.214;2023-03-01T09:29:07;8.40;;;1.95;;
34814;SDS011;21030;53.912;15.214;2023-03-01T09:31:36;1.45;;;1.23;;
34814;SDS011;21030;53.912;15.214;2023-03-01T09:34:04;6.00;;;1.50;;
34814;SDS011;21030;53.912;15.214;2023-03-01T09:36:32;3.95;;;1.65;;
34814;SDS011;21030;53.912;15.214;2023-03-01T09:39:00;4.28;;;1.63;;
34814;SDS011;21030;53.912;15.214;2023-03-01T09:47:14;5.15;;;1.55;;
34814;SDS011;21030;53.912;15.214;2023-03-01T09:49:45;5.63;;;2.28;;
34814;SDS011;21030;53.912;15.214;2023-03-01T09:52:36;5.05;;;2.58;;
34814;SDS011;21030;53.912;15.214;2023-03-01T09:55:17;11.05;;;2.00;;
34814;SDS011;21030;53.912;15.214;2023-03-01T09:57:55;3.78;;;2.03;;
34814;SDS011;21030;53.912;15.214;2023-03-01T10:00:47;5.47;;;1.50;;
34814;SDS011;21030;53.912;15.214;2023-03-01T10:06:08;2.88;;;1.90;;
34814;SDS011;21030;53.912;15.214;2023-03-01T10:08:58;4.75;;;2.33;;
34814;SDS011;21030;53.912;15.214;2023-03-01T10:11:31;4.60;;;2.17;;
34814;SDS011;21030;53.912;15.214;2023-03-01T10:17:19;3.65;;;1.95;;
34814;SDS011;21030;53.912;15.214;2023-03-01T10:19:46;4.72;;;2.20;;
34814;SDS011;21030;53.912;15.214;2023-03-01T10:24:50;4.75;;;1.98;;
34814;SDS011;21030;53.912;15.214;2023-03-01T10:28:05;4.55;;;2.38;;
34814;SDS011;21030;53.912;15.214;2023-03-01T10:32:49;6.63;;;2.33;;
34814;SDS011;21030;53.912;15.214;2023-03-01T10:35:20;4.95;;;2.00;;
34814;SDS011;21030;53.912;15.214;2023-03-01T10:38:08;7.47;;;2.22;;
34814;SDS011;21030;53.912;15.214;2023-03-01T10:40:49;11.68;;;3.38;;
34814;SDS011;21030;53.912;15.214;2023-03-01T10:43:25;5.63;;;2.95;;
34814;SDS011;21030;53.912;15.214;2023-03-01T10:45:54;5.35;;;2.08;;
34814;SDS011;21030;53.912;15.214;2023-03-01T10:48:25;6.10;;;2.50;;
34814;SDS011;21030;53.912;15.214;2023-03-01T10:53:34;8.55;;;1.98;;
34814;SDS011;21030;53.912;15.214;2023-03-01T10:56:05;6.53;;;2.88;;
34814;SDS011;21030;53.912;15.214;2023-03-01T10:58:39;4.22;;;1.90;;
34814;SDS011;21030;53.912;15.214;2023-03-01T11:06:32;8.75;;;3.53;;
34814;SDS011;21030;53.912;15.214;2023-03-01T11:09:13;12.70;;;6.22;;
34814;SDS011;21030;53.912;15.214;2023-03-01T11:11:42;10.20;;;3.13;;
34814;SDS011;21030;53.912;15.214;2023-03-01T11:14:17;9.13;;;3.03;;
34814;SDS011;21030;53.912;15.214;2023-03-01T11:17:10;5.47;;;1.63;;
34814;SDS011;21030;53.912;15.214;2023-03-01T11:22:49;4.90;;;2.35;;
34814;SDS011;21030;53.912;15.214;2023-03-01T11:25:19;5.13;;;2.17;;
34814;SDS011;21030;53.912;15.214;2023-03-01T11:27:50;5.72;;;2.85;;
34814;SDS011;21030;53.912;15.214;2023-03-01T11:30:21;7.18;;;3.08;;
34814;SDS011;21030;53.912;15.214;2023-03-01T11:35:41;5.38;;;2.47;;
34814;SDS011;21030;53.912;15.214;2023-03-01T11:40:54;5.53;;;2.15;;
34814;SDS011;21030;53.912;15.214;2023-03-01T11:43:32;7.40;;;2.78;;
34814;SDS011;21030;53.912;15.214;2023-03-01T11:57:20;5.03;;;2.10;;
34814;SDS011;21030;53.912;15.214;2023-03-01T12:11:02;7.00;;;2.95;;
34814;SDS011;21030;53.912;15.214;2023-03-01T12:21:57;6.25;;;1.52;;
34814;SDS011;21030;53.912;15.214;2023-03-01T12:27:33;4.15;;;1.92;;
34814;SDS011;21030;53.912;15.214;2023-03-01T12:46:40;7.03;;;2.10;;
34814;SDS011;21030;53.912;15.214;2023-03-01T12:49:15;3.65;;;2.03;;
34814;SDS011;21030;53.912;15.214;2023-03-01T12:54:39;7.43;;;2.22;;
34814;SDS011;21030;53.912;15.214;2023-03-01T13:02:52;2.20;;;1.80;;
34814;SDS011;21030;53.912;15.214;2023-03-01T13:05:40;2.20;;;0.98;;
34814;SDS011;21030;53.912;15.214;2023-03-01T13:10:56;1.98;;;1.10;;
34814;SDS011;21030;53.912;15.214;2023-03-01T13:13:27;4.53;;;2.55;;
34814;SDS011;21030;53.912;15.214;2023-03-01T13:15:55;4.68;;;2.22;;
34814;SDS011;21030;53.912;15.214;2023-03-01T13:20:54;3.22;;;1.63;;
34814;SDS011;21030;53.912;15.214;2023-03-01T13:28:47;6.10;;;1.52;;
34814;SDS011;21030;53.912;15.214;2023-03-01T13:33:47;3.03;;;1.42;;
34814;SDS011;21030;53.912;15.214;2023-03-01T13:38:56;5.63;;;1.63;;
34814;SDS011;21030;53.912;15.214;2023-03-01T13:44:50;4.55;;;1.63;;
34814;SDS011;21030;53.912;15.214;2023-03-01T13:52:47;5.95;;;2.03;;
34814;SDS011;21030;53.912;15.214;2023-03-01T13:57:49;7.00;;;2.40;;
34814;SDS011;21030;53.912;15.214;2023-03-01T14:00:37;4.05;;;1.70;;
34814;SDS011;21030;53.912;15.214;2023-03-01T14:03:10;3.75;;;1.60;;
34814;SDS011;21030;53.912;15.214;2023-03-01T14:05:59;5.70;;;1.63;;
34814;SDS011;21030;53.912;15.214;2023-03-01T14:08:42;4.95;;;1.85;;
34814;SDS011;21030;53.912;15.214;2023-03-01T14:17:03;3.85;;;2.30;;
34814;SDS011;21030;53.912;15.214;2023-03-01T14:19:34;4.68;;;2.45;;
34814;SDS011;21030;53.912;15.214;2023-03-01T14:24:52;5.32;;;2.03;;
34814;SDS011;21030;53.912;15.214;2023-03-01T14:27:43;3.25;;;1.45;;
34814;SDS011;21030;53.912;15.214;2023-03-01T14:35:58;2.72;;;1.30;;
34814;SDS011;21030;53.912;15.214;2023-03-01T14:38:32;3.67;;;1.23;;
34814;SDS011;21030;53.912;15.214;2023-03-01T14:41:03;3.25;;;1.20;;
34814;SDS011;21030;53.912;15.214;2023-03-01T14:43:45;5.35;;;2.22;;
34814;SDS011;21030;53.912;15.214;2023-03-01T14:46:19;9.50;;;3.13;;
34814;SDS011;21030;53.912;15.214;2023-03-01T14:48:54;5.18;;;2.35;;
34814;SDS011;21030;53.912;15.214;2023-03-01T14:51:27;5.45;;;2.20;;
34814;SDS011;21030;53.912;15.214;2023-03-01T14:53:55;9.60;;;2.72;;
34814;SDS011;21030;53.912;15.214;2023-03-01T14:56:23;6.82;;;2.65;;
34814;SDS011;21030;53.912;15.214;2023-03-01T14:58:53;7.13;;;2.85;;
34814;SDS011;21030;53.912;15.214;2023-03-01T15:01:25;7.47;;;3.42;;
34814;SDS011;21030;53.912;15.214;2023-03-01T15:03:54;13.98;;;2.92;;
34814;SDS011;21030;53.912;15.214;2023-03-01T15:06:24;7.63;;;2.63;;
34814;SDS011;21030;53.912;15.214;2023-03-01T15:08:52;8.43;;;2.65;;
34814;SDS011;21030;53.912;15.214;2023-03-01T15:11:22;7.82;;;3.08;;
34814;SDS011;21030;53.912;15.214;2023-03-01T15:13:51;4.57;;;2.70;;
34814;SDS011;21030;53.912;15.214;2023-03-01T15:16:19;8.43;;;3.13;;
34814;SDS011;21030;53.912;15.214;2023-03-01T15:21:33;3.83;;;2.17;;
34814;SDS011;21030;53.912;15.214;2023-03-01T15:24:05;4.28;;;2.78;;
34814;SDS011;21030;53.912;15.214;2023-03-01T15:26:42;6.93;;;3.50;;
34814;SDS011;21030;53.912;15.214;2023-03-01T15:29:18;6.60;;;2.30;;
34814;SDS011;21030;53.912;15.214;2023-03-01T15:31:56;7.22;;;3.20;;
34814;SDS011;21030;53.912;15.214;2023-03-01T15:34:33;11.05;;;2.60;;
34814;SDS011;21030;53.912;15.214;2023-03-01T15:37:06;7.22;;;3.67;;
34814;SDS011;21030;53.912;15.214;2023-03-01T15:39:54;6.15;;;3.20;;
34814;SDS011;21030;53.912;15.214;2023-03-01T15:45:20;10.73;;;3.03;;
34814;SDS011;21030;53.912;15.214;2023-03-01T15:47:50;6.28;;;3.80;;
34814;SDS011;21030;53.912;15.214;2023-03-01T15:50:35;6.10;;;4.25;;
34814;SDS011;21030;53.912;15.214;2023-03-01T15:53:09;7.60;;;3.53;;
34814;SDS011;21030;53.912;15.214;2023-03-01T15:55:38;7.78;;;3.72;;
34814;SDS011;21030;53.912;15.214;2023-03-01T15:58:10;4.55;;;3.00;;
34814;SDS011;21030;53.912;15.214;2023-03-01T16:00:40;3.70;;;1.77;;
34814;SDS011;21030;53.912;15.214;2023-03-01T16:03:25;8.57;;;2.97;;
34814;SDS011;21030;53.912;15.214;2023-03-01T16:05:52;4.45;;;1.42;;
34814;SDS011;21030;53.912;15.214;2023-03-01T16:08:20;2.95;;;2.13;;
34814;SDS011;21030;53.912;15.214;2023-03-01T16:10:47;10.82;;;2.35;;
34814;SDS011;21030;53.912;15.214;2023-03-01T16:13:17;8.90;;;2.92;;
34814;SDS011;21030;53.912;15.214;2023-03-01T16:15:45;3.65;;;1.92;;
34814;SDS011;21030;53.912;15.214;2023-03-01T16:18:13;6.38;;;2.63;;
34814;SDS011;21030;53.912;15.214;2023-03-01T16:20:40;5.05;;;2.97;;
34814;SDS011;21030;53.912;15.214;2023-03-01T16:23:09;6.38;;;3.85;;
34814;SDS011;21030;53.912;15.214;2023-03-01T16:25:37;13.15;;;3.63;;
34814;SDS011;21030;53.912;15.214;2023-03-01T16:28:05;8.50;;;3.53;;
34814;SDS011;21030;53.912;15.214;2023-03-01T16:30:36;14.50;;;5.30;;
34814;SDS011;21030;53.912;15.214;2023-03-01T16:33:05;5.65;;;2.20;;
34814;SDS011;21030;53.912;15.214;2023-03-01T16:35:50;10.85;;;2.95;;
34814;SDS011;21030;53.912;15.214;2023-03-01T16:38:17;7.82;;;4.70;;
34814;SDS011;21030;53.912;15.214;2023-03-01T16:40:47;5.75;;;3.10;;
34814;SDS011;21030;53.912;15.214;2023-03-01T16:43:16;9.00;;;3.40;;
34814;SDS011;21030;53.912;15.214;2023-03-01T16:45:43;22.67;;;9.32;;
34814;SDS011;21030;53.912;15.214;2023-03-01T16:48:13;12.83;;;7.13;;
34814;SDS011;21030;53.912;15.214;2023-03-01T16:50:41;17.33;;;7.75;;
34814;SDS011;21030;53.912;15.214;2023-03-01T16:53:08;13.13;;;6.15;;
34814;SDS011;21030;53.912;15.214;2023-03-01T16:55:35;17.73;;;5.28;;
34814;SDS011;21030;53.912;15.214;2023-03-01T16:58:04;9.45;;;6.35;;
34814;SDS011;21030;53.912;15.214;2023-03-01T17:00:33;13.73;;;3.55;;
34814;SDS011;21030;53.912;15.214;2023-03-01T17:03:00;4.78;;;3.42;;
34814;SDS011;21030;53.912;15.214;2023-03-01T17:05:27;17.60;;;5.18;;
34814;SDS011;21030;53.912;15.214;2023-03-01T17:07:55;18.35;;;5.35;;
34814;SDS011;21030;53.912;15.214;2023-03-01T17:10:23;8.35;;;4.80;;
34814;SDS011;21030;53.912;15.214;2023-03-01T17:12:50;5.43;;;3.08;;
34814;SDS011;21030;53.912;15.214;2023-03-01T17:15:17;15.23;;;5.32;;
34814;SDS011;21030;53.912;15.214;2023-03-01T17:17:45;9.73;;;5.43;;
34814;SDS011;21030;53.912;15.214;2023-03-01T17:20:17;3.95;;;2.55;;
34814;SDS011;21030;53.912;15.214;2023-03-01T17:22:45;4.32;;;2.17;;
34814;SDS011;21030;53.912;15.214;2023-03-01T17:25:12;1.92;;;1.27;;
34814;SDS011;21030;53.912;15.214;2023-03-01T17:27:39;2.75;;;1.60;;
34814;SDS011;21030;53.912;15.214;2023-03-01T17:30:07;4.13;;;1.98;;
34814;SDS011;21030;53.912;15.214;2023-03-01T17:32:36;2.85;;;1.23;;